sensor_id;sensor_type;location;lat;lon;timestamp;pressure;altitude;pressure_sealevel;temperature;humidity
15674;BME280;7937;48.090;16.212;2023-01-31T00:02:39;97634.66;;;2.54;72.75
15674;BME280;7937;48.090;16.212;2023-01-31T00:05:42;97653.34;;;2.38;72.69
15674;BME280;7937;48.090;16.212;2023-01-31T00:08:45;97651.00;;;2.49;72.40
15674;BME280;7937;48.090;16.212;2023-01-31T00:11:48;97653.63;;;2.49;72.08
15674;BME280;7937;48.090;16.212;2023-01-31T00:14:50;97656.13;;;2.57;71.63
15674;BME280;7937;48.090;16.212;2023-01-31T00:17:53;97648.19;;;2.51;72.17
15674;BME280;7937;48.090;16.212;2023-01-31T00:20:56;97650.44;;;2.54;73.23
15674;BME280;7937;48.090;16.212;2023-01-31T00:23:58;97642.16;;;2.57;70.81
15674;BME280;7937;48.090;16.212;2023-01-31T00:27:00;97656.94;;;2.58;71.29
15674;BME280;7937;48.090;16.212;2023-01-31T00:30:03;97665.63;;;2.58;72.65
15674;BME280;7937;48.090;16.212;2023-01-31T00:33:05;97625.91;;;2.47;71.28
15674;BME280;7937;48.090;16.212;2023-01-31T00:36:14;97647.69;;;2.69;70.21
15674;BME280;7937;48.090;16.212;2023-01-31T00:39:18;97631.31;;;2.67;70.93
15674;BME280;7937;48.090;16.212;2023-01-31T00:42:20;97651.69;;;2.58;71.52
15674;BME280;7937;48.090;16.212;2023-01-31T00:45:22;97654.50;;;2.56;72.19
15674;BME280;7937;48.090;16.212;2023-01-31T00:48:25;97626.19;;;2.58;72.36
15674;BME280;7937;48.090;16.212;2023-01-31T00:51:27;97641.81;;;2.39;72.59
15674;BME280;7937;48.090;16.212;2023-01-31T00:54:29;97669.59;;;2.48;72.15
15674;BME280;7937;48.090;16.212;2023-01-31T00:57:32;97673.66;;;2.50;72.40
15674;BME280;7937;48.090;16.212;2023-01-31T01:00:35;97677.50;;;2.48;71.38
15674;BME280;7937;48.090;16.212;2023-01-31T01:03:39;97709.50;;;2.51;70.51
15674;BME280;7937;48.090;16.212;2023-01-31T01:06:41;97685.63;;;2.53;70.92
15674;BME280;7937;48.090;16.212;2023-01-31T01:09:45;97686.47;;;2.60;71.40
15674;BME280;7937;48.090;16.212;2023-01-31T01:12:48;97676.34;;;2.57;71.59
15674;BME280;7937;48.090;16.212;2023-01-31T01:15:50;97662.56;;;2.55;72.59
15674;BME280;7937;48.090;16.212;2023-01-31T01:18:53;97650.59;;;2.24;72.71
15674;BME280;7937;48.090;16.212;2023-01-31T01:21:58;97655.34;;;2.36;72.45
15674;BME280;7937;48.090;16.212;2023-01-31T01:25:00;97672.25;;;2.48;72.19
15674;BME280;7937;48.090;16.212;2023-01-31T01:28:02;97651.63;;;2.51;72.24
15674;BME280;7937;48.090;16.212;2023-01-31T01:31:06;97618.94;;;2.32;71.40
15674;BME280;7937;48.090;16.212;2023-01-31T01:34:12;97639.81;;;2.41;71.08
15674;BME280;7937;48.090;16.212;2023-01-31T01:37:14;97654.56;;;2.63;70.73
15674;BME280;7937;48.090;16.212;2023-01-31T01:40:20;97653.53;;;2.64;70.54
15674;BME280;7937;48.090;16.212;2023-01-31T01:43:58;97663.75;;;2.80;68.82
15674;BME280;7937;48.090;16.212;2023-01-31T01:47:02;97645.50;;;2.72;68.99
15674;BME280;7937;48.090;16.212;2023-01-31T01:53:21;97643.03;;;2.64;68.86
15674;BME280;7937;48.090;16.212;2023-01-31T01:56:28;97646.69;;;2.70;67.87
15674;BME280;7937;48.090;16.212;2023-01-31T01:59:39;97669.22;;;2.79;68.30
15674;BME280;7937;48.090;16.212;2023-01-31T02:02:44;97654.66;;;2.76;68.71
15674;BME280;7937;48.090;16.212;2023-01-31T02:05:52;97680.47;;;2.66;69.23
15674;BME280;7937;48.090;16.212;2023-01-31T02:08:56;97664.75;;;2.79;68.39
15674;BME280;7937;48.090;16.212;2023-01-31T02:11:59;97667.22;;;2.81;68.86
15674;BME280;7937;48.090;16.212;2023-01-31T02:15:01;97666.59;;;2.79;69.22
15674;BME280;7937;48.090;16.212;2023-01-31T02:18:05;97659.56;;;2.86;69.15
15674;BME280;7937;48.090;16.212;2023-01-31T02:25:40;97663.34;;;2.77;69.89
15674;BME280;7937;48.090;16.212;2023-01-31T02:39:17;97690.47;;;2.77;68.65
15674;BME280;7937;48.090;16.212;2023-01-31T02:42:28;97695.16;;;2.82;67.92
15674;BME280;7937;48.090;16.212;2023-01-31T02:48:57;97706.72;;;2.88;67.84
15674;BME280;7937;48.090;16.212;2023-01-31T02:55:38;97725.75;;;2.90;67.82
15674;BME280;7937;48.090;16.212;2023-01-31T02:59:08;97688.53;;;2.93;66.86
15674;BME280;7937;48.090;16.212;2023-01-31T03:02:12;97688.31;;;2.88;66.96
15674;BME280;7937;48.090;16.212;2023-01-31T03:05:17;97684.22;;;2.85;67.71
15674;BME280;7937;48.090;16.212;2023-01-31T03:08:20;97701.22;;;2.82;67.73
15674;BME280;7937;48.090;16.212;2023-01-31T03:11:28;97707.72;;;2.87;67.59
15674;BME280;7937;48.090;16.212;2023-01-31T03:14:54;97715.84;;;2.92;67.61
15674;BME280;7937;48.090;16.212;2023-01-31T03:18:11;97716.22;;;2.89;68.28
15674;BME280;7937;48.090;16.212;2023-01-31T03:21:24;97712.13;;;2.79;67.99
15674;BME280;7937;48.090;16.212;2023-01-31T03:24:29;97725.28;;;2.79;68.49
15674;BME280;7937;48.090;16.212;2023-01-31T03:27:33;97734.06;;;2.93;67.48
15674;BME280;7937;48.090;16.212;2023-01-31T03:30:50;97730.63;;;2.93;67.08
15674;BME280;7937;48.090;16.212;2023-01-31T03:33:58;97735.28;;;2.91;66.82
15674;BME280;7937;48.090;16.212;2023-01-31T03:37:30;97733.06;;;2.94;65.97
15674;BME280;7937;48.090;16.212;2023-01-31T03:41:01;97737.38;;;3.02;66.34
15674;BME280;7937;48.090;16.212;2023-01-31T03:47:39;97744.41;;;2.95;66.08
15674;BME280;7937;48.090;16.212;2023-01-31T03:50:50;97725.91;;;2.81;66.86
15674;BME280;7937;48.090;16.212;2023-01-31T03:53:59;97749.25;;;2.91;66.96
15674;BME280;7937;48.090;16.212;2023-01-31T03:57:11;97765.03;;;2.91;67.43
15674;BME280;7937;48.090;16.212;2023-01-31T04:00:17;97755.31;;;2.92;66.29
15674;BME280;7937;48.090;16.212;2023-01-31T04:03:30;97763.38;;;2.90;66.07
15674;BME280;7937;48.090;16.212;2023-01-31T04:06:33;97768.09;;;2.95;66.27
15674;BME280;7937;48.090;16.212;2023-01-31T04:09:36;97777.47;;;3.04;66.42
15674;BME280;7937;48.090;16.212;2023-01-31T04:12:40;97733.16;;;2.79;65.96
15674;BME280;7937;48.090;16.212;2023-01-31T04:15:42;97785.56;;;3.02;65.87
15674;BME280;7937;48.090;16.212;2023-01-31T04:18:45;97782.81;;;3.10;65.24
15674;BME280;7937;48.090;16.212;2023-01-31T04:21:47;97775.94;;;3.16;64.88
15674;BME280;7937;48.090;16.212;2023-01-31T04:24:49;97783.84;;;3.16;65.15
15674;BME280;7937;48.090;16.212;2023-01-31T04:27:51;97775.13;;;3.16;65.54
15674;BME280;7937;48.090;16.212;2023-01-31T04:30:55;97758.81;;;2.99;65.10
15674;BME280;7937;48.090;16.212;2023-01-31T04:33:58;97784.81;;;3.15;66.05
15674;BME280;7937;48.090;16.212;2023-01-31T04:37:00;97771.72;;;2.94;66.18
15674;BME280;7937;48.090;16.212;2023-01-31T04:40:03;97777.22;;;2.99;66.07
15674;BME280;7937;48.090;16.212;2023-01-31T04:43:07;97782.13;;;3.02;66.29
15674;BME280;7937;48.090;16.212;2023-01-31T04:46:09;97782.41;;;3.14;66.36
15674;BME280;7937;48.090;16.212;2023-01-31T04:49:12;97747.19;;;2.87;66.15
15674;BME280;7937;48.090;16.212;2023-01-31T04:52:15;97796.28;;;3.01;66.30
15674;BME280;7937;48.090;16.212;2023-01-31T04:55:17;97771.16;;;2.98;66.35
15674;BME280;7937;48.090;16.212;2023-01-31T04:58:20;97773.97;;;2.97;66.42
15674;BME280;7937;48.090;16.212;2023-01-31T05:01:23;97784.44;;;2.90;66.83
15674;BME280;7937;48.090;16.212;2023-01-31T05:04:25;97802.44;;;2.87;66.21
15674;BME280;7937;48.090;16.212;2023-01-31T05:07:27;97811.75;;;2.89;66.10
15674;BME280;7937;48.090;16.212;2023-01-31T05:10:29;97816.69;;;2.99;65.81
15674;BME280;7937;48.090;16.212;2023-01-31T05:13:32;97813.06;;;3.00;66.04
15674;BME280;7937;48.090;16.212;2023-01-31T05:16:38;97811.00;;;2.95;66.07
15674;BME280;7937;48.090;16.212;2023-01-31T05:19:41;97811.84;;;2.96;65.63
15674;BME280;7937;48.090;16.212;2023-01-31T05:22:47;97801.22;;;3.10;65.31
15674;BME280;7937;48.090;16.212;2023-01-31T05:25:52;97812.88;;;3.01;65.62
15674;BME280;7937;48.090;16.212;2023-01-31T05:28:54;97814.25;;;2.97;65.51
15674;BME280;7937;48.090;16.212;2023-01-31T05:31:58;97807.19;;;2.98;65.77
15674;BME280;7937;48.090;16.212;2023-01-31T05:35:01;97815.06;;;2.98;65.09
15674;BME280;7937;48.090;16.212;2023-01-31T05:38:04;97811.22;;;3.00;65.02
15674;BME280;7937;48.090;16.212;2023-01-31T05:41:06;97808.50;;;3.15;64.69
15674;BME280;7937;48.090;16.212;2023-01-31T05:44:09;97828.03;;;2.99;64.92
15674;BME280;7937;48.090;16.212;2023-01-31T05:47:12;97830.25;;;2.96;66.19
15674;BME280;7937;48.090;16.212;2023-01-31T05:50:15;97833.50;;;2.98;65.20
15674;BME280;7937;48.090;16.212;2023-01-31T05:53:17;97844.50;;;3.08;65.56
15674;BME280;7937;48.090;16.212;2023-01-31T05:56:20;97848.91;;;3.01;65.55
15674;BME280;7937;48.090;16.212;2023-01-31T05:59:22;97846.91;;;3.03;65.41
15674;BME280;7937;48.090;16.212;2023-01-31T06:02:24;97862.31;;;3.06;65.11
15674;BME280;7937;48.090;16.212;2023-01-31T06:05:27;97870.84;;;3.08;65.17
15674;BME280;7937;48.090;16.212;2023-01-31T06:08:30;97868.00;;;3.09;64.62
15674;BME280;7937;48.090;16.212;2023-01-31T06:11:33;97894.97;;;3.12;65.07
15674;BME280;7937;48.090;16.212;2023-01-31T06:14:35;97874.84;;;3.04;64.82
15674;BME280;7937;48.090;16.212;2023-01-31T06:17:37;97904.72;;;3.18;64.75
15674;BME280;7937;48.090;16.212;2023-01-31T06:20:40;97913.56;;;3.10;64.62
15674;BME280;7937;48.090;16.212;2023-01-31T06:23:42;97898.41;;;2.91;65.53
15674;BME280;7937;48.090;16.212;2023-01-31T06:26:47;97899.91;;;3.00;65.77
15674;BME280;7937;48.090;16.212;2023-01-31T06:29:50;97912.44;;;2.98;66.12
15674;BME280;7937;48.090;16.212;2023-01-31T06:32:52;97904.91;;;2.95;66.63
15674;BME280;7937;48.090;16.212;2023-01-31T06:35:58;97906.56;;;2.96;66.05
15674;BME280;7937;48.090;16.212;2023-01-31T06:39:00;97913.81;;;2.94;66.21
15674;BME280;7937;48.090;16.212;2023-01-31T06:42:04;97945.38;;;2.94;66.53
15674;BME280;7937;48.090;16.212;2023-01-31T06:45:06;97918.56;;;2.83;66.59
15674;BME280;7937;48.090;16.212;2023-01-31T06:48:09;97921.81;;;2.85;66.52
15674;BME280;7937;48.090;16.212;2023-01-31T06:51:12;97929.53;;;2.87;66.12
15674;BME280;7937;48.090;16.212;2023-01-31T06:54:14;97920.69;;;2.95;66.52
15674;BME280;7937;48.090;16.212;2023-01-31T06:57:16;97898.03;;;2.72;66.26
15674;BME280;7937;48.090;16.212;2023-01-31T07:00:22;97946.13;;;2.88;66.49
15674;BME280;7937;48.090;16.212;2023-01-31T07:03:44;97920.88;;;2.72;66.22
15674;BME280;7937;48.090;16.212;2023-01-31T07:06:47;97939.06;;;2.88;66.37
15674;BME280;7937;48.090;16.212;2023-01-31T07:09:49;97949.03;;;2.93;66.33
15674;BME280;7937;48.090;16.212;2023-01-31T07:12:51;97935.50;;;2.96;65.08
15674;BME280;7937;48.090;16.212;2023-01-31T07:15:54;97954.28;;;2.93;65.20
15674;BME280;7937;48.090;16.212;2023-01-31T07:18:57;97962.50;;;3.04;64.55
15674;BME280;7937;48.090;16.212;2023-01-31T07:21:59;97954.75;;;2.96;64.16
15674;BME280;7937;48.090;16.212;2023-01-31T07:25:02;97956.63;;;3.02;63.64
15674;BME280;7937;48.090;16.212;2023-01-31T07:28:04;97956.13;;;3.14;63.61
15674;BME280;7937;48.090;16.212;2023-01-31T07:31:12;97976.63;;;3.18;62.08
15674;BME280;7937;48.090;16.212;2023-01-31T07:34:14;97982.06;;;3.38;60.89
15674;BME280;7937;48.090;16.212;2023-01-31T07:37:16;97980.38;;;3.52;59.08
15674;BME280;7937;48.090;16.212;2023-01-31T07:40:19;97988.41;;;3.44;59.90
15674;BME280;7937;48.090;16.212;2023-01-31T07:43:21;97993.81;;;3.35;59.82
15674;BME280;7937;48.090;16.212;2023-01-31T07:46:24;97996.00;;;3.32;59.01
15674;BME280;7937;48.090;16.212;2023-01-31T07:49:27;98003.09;;;3.31;58.75
15674;BME280;7937;48.090;16.212;2023-01-31T07:52:30;98018.31;;;3.36;59.22
15674;BME280;7937;48.090;16.212;2023-01-31T07:55:33;98007.34;;;3.32;59.03
15674;BME280;7937;48.090;16.212;2023-01-31T07:58:37;98005.53;;;3.33;59.09
15674;BME280;7937;48.090;16.212;2023-01-31T08:01:39;98025.22;;;3.37;59.73
15674;BME280;7937;48.090;16.212;2023-01-31T08:05:00;97998.13;;;3.43;59.79
15674;BME280;7937;48.090;16.212;2023-01-31T08:08:03;98033.34;;;3.63;59.75
15674;BME280;7937;48.090;16.212;2023-01-31T08:11:11;98012.25;;;3.57;60.29
15674;BME280;7937;48.090;16.212;2023-01-31T08:14:13;98028.03;;;3.57;60.35
15674;BME280;7937;48.090;16.212;2023-01-31T08:17:15;98032.19;;;3.66;60.33
15674;BME280;7937;48.090;16.212;2023-01-31T08:20:18;98029.47;;;3.81;60.45
15674;BME280;7937;48.090;16.212;2023-01-31T08:23:20;98039.69;;;3.91;59.43
15674;BME280;7937;48.090;16.212;2023-01-31T08:26:22;98048.41;;;3.91;58.82
15674;BME280;7937;48.090;16.212;2023-01-31T08:29:26;98056.69;;;4.09;58.72
15674;BME280;7937;48.090;16.212;2023-01-31T08:32:28;98068.94;;;3.96;59.06
15674;BME280;7937;48.090;16.212;2023-01-31T08:35:31;98072.50;;;3.88;60.37
15674;BME280;7937;48.090;16.212;2023-01-31T08:38:33;98072.31;;;3.68;61.65
15674;BME280;7937;48.090;16.212;2023-01-31T08:41:36;98084.78;;;3.38;62.69
15674;BME280;7937;48.090;16.212;2023-01-31T08:44:38;98076.56;;;3.26;62.53
15674;BME280;7937;48.090;16.212;2023-01-31T08:47:40;98092.50;;;3.25;63.51
15674;BME280;7937;48.090;16.212;2023-01-31T08:50:42;98091.00;;;3.16;64.75
15674;BME280;7937;48.090;16.212;2023-01-31T08:53:45;98087.94;;;2.97;64.64
15674;BME280;7937;48.090;16.212;2023-01-31T08:56:47;98088.94;;;2.96;65.68
15674;BME280;7937;48.090;16.212;2023-01-31T08:59:49;98081.75;;;2.90;65.31
15674;BME280;7937;48.090;16.212;2023-01-31T09:02:56;98079.69;;;2.85;65.28
15674;BME280;7937;48.090;16.212;2023-01-31T09:05:59;98089.94;;;2.80;65.46
15674;BME280;7937;48.090;16.212;2023-01-31T09:09:02;98089.75;;;2.97;65.24
15674;BME280;7937;48.090;16.212;2023-01-31T09:12:05;98077.69;;;3.02;64.53
15674;BME280;7937;48.090;16.212;2023-01-31T09:15:07;98084.09;;;3.15;64.25
15674;BME280;7937;48.090;16.212;2023-01-31T09:18:10;98091.09;;;3.22;63.14
15674;BME280;7937;48.090;16.212;2023-01-31T09:21:16;98102.91;;;3.48;62.21
15674;BME280;7937;48.090;16.212;2023-01-31T09:24:18;98083.50;;;3.70;61.80
15674;BME280;7937;48.090;16.212;2023-01-31T09:27:21;98095.22;;;3.89;61.58
15674;BME280;7937;48.090;16.212;2023-01-31T09:30:23;98069.81;;;3.81;59.83
15674;BME280;7937;48.090;16.212;2023-01-31T09:33:25;98103.44;;;4.01;59.71
15674;BME280;7937;48.090;16.212;2023-01-31T09:36:27;98102.06;;;4.05;59.70
15674;BME280;7937;48.090;16.212;2023-01-31T09:39:30;98116.50;;;4.09;59.25
15674;BME280;7937;48.090;16.212;2023-01-31T09:42:42;98078.13;;;4.06;58.98
15674;BME280;7937;48.090;16.212;2023-01-31T09:45:46;98082.97;;;4.24;58.57
15674;BME280;7937;48.090;16.212;2023-01-31T09:48:51;98086.25;;;4.33;58.13
15674;BME280;7937;48.090;16.212;2023-01-31T09:52:00;98073.91;;;4.12;57.13
15674;BME280;7937;48.090;16.212;2023-01-31T09:55:04;98090.94;;;4.37;56.76
15674;BME280;7937;48.090;16.212;2023-01-31T10:08:18;98092.97;;;4.63;54.05
15674;BME280;7937;48.090;16.212;2023-01-31T10:11:38;98088.06;;;4.60;54.39
15674;BME280;7937;48.090;16.212;2023-01-31T10:14:46;98078.78;;;4.71;54.03
15674;BME280;7937;48.090;16.212;2023-01-31T10:18:12;98083.88;;;4.73;53.46
15674;BME280;7937;48.090;16.212;2023-01-31T10:21:21;98050.75;;;5.11;53.44
15674;BME280;7937;48.090;16.212;2023-01-31T10:24:30;98089.75;;;5.77;52.82
15674;BME280;7937;48.090;16.212;2023-01-31T10:27:41;98066.44;;;5.26;52.35
15674;BME280;7937;48.090;16.212;2023-01-31T10:30:54;98066.47;;;5.33;52.64
15674;BME280;7937;48.090;16.212;2023-01-31T10:34:28;98063.25;;;5.51;51.09
15674;BME280;7937;48.090;16.212;2023-01-31T10:37:34;98080.28;;;5.28;51.68
15674;BME280;7937;48.090;16.212;2023-01-31T10:40:40;98110.16;;;5.35;53.01
15674;BME280;7937;48.090;16.212;2023-01-31T10:44:01;98057.63;;;5.06;51.59
15674;BME280;7937;48.090;16.212;2023-01-31T10:47:11;98085.34;;;5.23;51.84
15674;BME280;7937;48.090;16.212;2023-01-31T10:50:16;98090.19;;;5.20;51.43
15674;BME280;7937;48.090;16.212;2023-01-31T10:53:40;98081.47;;;5.19;52.43
15674;BME280;7937;48.090;16.212;2023-01-31T10:56:48;98107.00;;;5.05;52.30
15674;BME280;7937;48.090;16.212;2023-01-31T10:59:54;98083.72;;;4.81;52.47
15674;BME280;7937;48.090;16.212;2023-01-31T11:03:01;98094.94;;;4.89;52.16
15674;BME280;7937;48.090;16.212;2023-01-31T11:06:04;98073.69;;;5.04;52.09
15674;BME280;7937;48.090;16.212;2023-01-31T11:09:09;98083.81;;;5.01;50.80
15674;BME280;7937;48.090;16.212;2023-01-31T11:12:12;98075.91;;;5.07;51.50
15674;BME280;7937;48.090;16.212;2023-01-31T11:15:17;98058.63;;;5.66;50.86
15674;BME280;7937;48.090;16.212;2023-01-31T11:18:30;98081.84;;;5.90;50.29
15674;BME280;7937;48.090;16.212;2023-01-31T11:21:34;98067.38;;;5.66;50.80
15674;BME280;7937;48.090;16.212;2023-01-31T11:24:37;98061.47;;;5.58;52.00
15674;BME280;7937;48.090;16.212;2023-01-31T11:27:42;98072.38;;;5.28;52.73
15674;BME280;7937;48.090;16.212;2023-01-31T11:30:47;98078.16;;;5.10;53.18
15674;BME280;7937;48.090;16.212;2023-01-31T11:33:56;98089.78;;;5.16;54.16
15674;BME280;7937;48.090;16.212;2023-01-31T11:37:16;98091.66;;;5.22;53.74
15674;BME280;7937;48.090;16.212;2023-01-31T11:40:28;98078.50;;;4.94;55.17
15674;BME280;7937;48.090;16.212;2023-01-31T11:43:31;98077.41;;;4.75;56.04
15674;BME280;7937;48.090;16.212;2023-01-31T11:46:42;98069.00;;;4.58;57.00
15674;BME280;7937;48.090;16.212;2023-01-31T11:49:47;98054.84;;;4.73;56.56
15674;BME280;7937;48.090;16.212;2023-01-31T11:53:15;98079.19;;;5.09;55.82
15674;BME280;7937;48.090;16.212;2023-01-31T11:56:29;98068.63;;;5.03;55.85
15674;BME280;7937;48.090;16.212;2023-01-31T11:59:35;98061.41;;;4.83;55.60
15674;BME280;7937;48.090;16.212;2023-01-31T12:02:39;98056.00;;;4.98;56.58
15674;BME280;7937;48.090;16.212;2023-01-31T12:05:44;98065.41;;;5.14;55.20
15674;BME280;7937;48.090;16.212;2023-01-31T12:08:52;98064.63;;;5.27;54.36
15674;BME280;7937;48.090;16.212;2023-01-31T12:11:59;98052.47;;;5.46;53.32
15674;BME280;7937;48.090;16.212;2023-01-31T12:15:14;98066.44;;;5.20;52.54
15674;BME280;7937;48.090;16.212;2023-01-31T12:18:35;98053.16;;;5.06;53.45
15674;BME280;7937;48.090;16.212;2023-01-31T12:42:07;98030.78;;;4.20;55.52
15674;BME280;7937;48.090;16.212;2023-01-31T12:45:25;98027.34;;;4.54;55.05
15674;BME280;7937;48.090;16.212;2023-01-31T12:51:55;98051.22;;;4.74;53.50
15674;BME280;7937;48.090;16.212;2023-01-31T12:55:24;98043.28;;;4.74;53.25
15674;BME280;7937;48.090;16.212;2023-01-31T12:58:32;98039.84;;;4.73;54.45
15674;BME280;7937;48.090;16.212;2023-01-31T13:01:47;98029.09;;;4.75;53.08
15674;BME280;7937;48.090;16.212;2023-01-31T13:04:55;98036.84;;;4.83;54.19
15674;BME280;7937;48.090;16.212;2023-01-31T13:08:22;98038.31;;;4.57;54.03
15674;BME280;7937;48.090;16.212;2023-01-31T13:11:28;98026.22;;;4.70;53.64
15674;BME280;7937;48.090;16.212;2023-01-31T13:14:37;98011.06;;;4.85;53.16
15674;BME280;7937;48.090;16.212;2023-01-31T13:17:41;98028.56;;;4.99;53.17
15674;BME280;7937;48.090;16.212;2023-01-31T13:20:51;98018.28;;;5.17;53.26
15674;BME280;7937;48.090;16.212;2023-01-31T13:24:05;98033.06;;;5.12;52.23
15674;BME280;7937;48.090;16.212;2023-01-31T13:27:18;98013.22;;;4.68;53.10
15674;BME280;7937;48.090;16.212;2023-01-31T13:34:16;98019.34;;;4.82;52.74
15674;BME280;7937;48.090;16.212;2023-01-31T13:37:20;98001.59;;;4.56;52.85
15674;BME280;7937;48.090;16.212;2023-01-31T13:40:26;98017.06;;;4.65;52.75
15674;BME280;7937;48.090;16.212;2023-01-31T13:43:29;98003.44;;;4.62;52.38
15674;BME280;7937;48.090;16.212;2023-01-31T13:50:34;98009.94;;;4.59;51.63
15674;BME280;7937;48.090;16.212;2023-01-31T13:56:55;97986.09;;;4.39;52.18
15674;BME280;7937;48.090;16.212;2023-01-31T14:03:25;97979.06;;;4.53;51.98
15674;BME280;7937;48.090;16.212;2023-01-31T14:13:19;97963.94;;;4.34;49.78
15674;BME280;7937;48.090;16.212;2023-01-31T14:16:40;97972.31;;;4.44;50.88
15674;BME280;7937;48.090;16.212;2023-01-31T14:23:26;97960.16;;;4.50;49.09
15674;BME280;7937;48.090;16.212;2023-01-31T14:29:45;97967.78;;;4.31;49.97
15674;BME280;7937;48.090;16.212;2023-01-31T14:40:03;97949.47;;;4.23;54.04
15674;BME280;7937;48.090;16.212;2023-01-31T14:54:03;97935.19;;;4.04;52.65
15674;BME280;7937;48.090;16.212;2023-01-31T14:57:26;97944.81;;;3.91;52.35
15674;BME280;7937;48.090;16.212;2023-01-31T15:00:37;97952.56;;;3.99;51.97
15674;BME280;7937;48.090;16.212;2023-01-31T15:03:48;97935.59;;;4.08;52.08
15674;BME280;7937;48.090;16.212;2023-01-31T15:06:53;97907.91;;;3.91;52.75
15674;BME280;7937;48.090;16.212;2023-01-31T15:09:56;97939.59;;;4.04;53.43
15674;BME280;7937;48.090;16.212;2023-01-31T15:12:59;97922.94;;;3.97;52.09
15674;BME280;7937;48.090;16.212;2023-01-31T15:16:04;97929.25;;;4.02;52.89
15674;BME280;7937;48.090;16.212;2023-01-31T15:19:14;97930.72;;;4.05;52.96
15674;BME280;7937;48.090;16.212;2023-01-31T15:22:20;97932.09;;;4.01;52.77
15674;BME280;7937;48.090;16.212;2023-01-31T15:25:31;97964.91;;;3.98;53.36
15674;BME280;7937;48.090;16.212;2023-01-31T15:28:40;97943.44;;;3.95;52.31
15674;BME280;7937;48.090;16.212;2023-01-31T15:31:45;97925.97;;;3.94;52.80
15674;BME280;7937;48.090;16.212;2023-01-31T15:35:00;97922.34;;;3.95;53.09
15674;BME280;7937;48.090;16.212;2023-01-31T15:38:15;97935.53;;;3.95;54.19
15674;BME280;7937;48.090;16.212;2023-01-31T15:41:31;97925.16;;;3.93;52.57
15674;BME280;7937;48.090;16.212;2023-01-31T15:44:36;97936.91;;;3.91;53.87
15674;BME280;7937;48.090;16.212;2023-01-31T15:47:39;97935.88;;;3.85;54.10
15674;BME280;7937;48.090;16.212;2023-01-31T15:50:52;97953.25;;;3.79;53.77
15674;BME280;7937;48.090;16.212;2023-01-31T15:54:02;97951.94;;;3.69;54.10
15674;BME280;7937;48.090;16.212;2023-01-31T15:57:14;97943.19;;;3.61;54.46
15674;BME280;7937;48.090;16.212;2023-01-31T16:00:19;97947.72;;;3.74;53.84
15674;BME280;7937;48.090;16.212;2023-01-31T16:03:27;97962.59;;;3.82;53.64
15674;BME280;7937;48.090;16.212;2023-01-31T16:06:35;97905.88;;;3.58;53.90
15674;BME280;7937;48.090;16.212;2023-01-31T16:09:39;97869.13;;;3.22;55.22
15674;BME280;7937;48.090;16.212;2023-01-31T16:12:45;97886.81;;;3.56;54.59
15674;BME280;7937;48.090;16.212;2023-01-31T16:15:49;97890.06;;;3.58;54.93
15674;BME280;7937;48.090;16.212;2023-01-31T16:18:57;97852.59;;;3.34;54.13
15674;BME280;7937;48.090;16.212;2023-01-31T16:22:00;97908.28;;;3.59;54.63
15674;BME280;7937;48.090;16.212;2023-01-31T16:25:03;97907.81;;;3.49;55.23
15674;BME280;7937;48.090;16.212;2023-01-31T16:28:08;97908.69;;;3.56;55.26
15674;BME280;7937;48.090;16.212;2023-01-31T16:31:16;97920.28;;;3.62;54.51
15674;BME280;7937;48.090;16.212;2023-01-31T16:34:56;97921.78;;;3.71;53.43
15674;BME280;7937;48.090;16.212;2023-01-31T16:38:17;97904.00;;;3.80;53.92
15674;BME280;7937;48.090;16.212;2023-01-31T16:44:41;97877.19;;;3.70;53.45
15674;BME280;7937;48.090;16.212;2023-01-31T16:47:46;97891.41;;;3.75;52.81
15674;BME280;7937;48.090;16.212;2023-01-31T16:50:53;97882.50;;;3.76;53.26
15674;BME280;7937;48.090;16.212;2023-01-31T16:54:18;97878.03;;;3.77;53.82
15674;BME280;7937;48.090;16.212;2023-01-31T17:00:40;97883.50;;;3.75;53.94
15674;BME280;7937;48.090;16.212;2023-01-31T17:03:43;97891.34;;;3.69;54.71
15674;BME280;7937;48.090;16.212;2023-01-31T17:07:00;97902.91;;;3.68;53.67
15674;BME280;7937;48.090;16.212;2023-01-31T17:10:07;97909.41;;;3.72;53.41
15674;BME280;7937;48.090;16.212;2023-01-31T17:13:18;97866.16;;;3.59;51.67
15674;BME280;7937;48.090;16.212;2023-01-31T17:16:23;97884.47;;;3.74;51.78
15674;BME280;7937;48.090;16.212;2023-01-31T17:19:26;97870.78;;;3.85;50.68
15674;BME280;7937;48.090;16.212;2023-01-31T17:22:32;97889.84;;;3.87;51.24
15674;BME280;7937;48.090;16.212;2023-01-31T17:25:34;97863.84;;;3.78;51.96
15674;BME280;7937;48.090;16.212;2023-01-31T17:28:40;97866.53;;;3.84;50.91
15674;BME280;7937;48.090;16.212;2023-01-31T17:31:47;97867.53;;;3.83;50.98
15674;BME280;7937;48.090;16.212;2023-01-31T17:34:50;97864.13;;;3.90;53.05
15674;BME280;7937;48.090;16.212;2023-01-31T17:37:53;97873.81;;;3.82;53.56
15674;BME280;7937;48.090;16.212;2023-01-31T17:40:56;97866.94;;;3.88;51.31
15674;BME280;7937;48.090;16.212;2023-01-31T17:44:00;97871.16;;;3.82;54.39
15674;BME280;7937;48.090;16.212;2023-01-31T17:47:23;97895.91;;;3.53;59.41
15674;BME280;7937;48.090;16.212;2023-01-31T17:50:28;97886.81;;;3.06;64.71
15674;BME280;7937;48.090;16.212;2023-01-31T17:53:31;97876.13;;;2.50;66.58
15674;BME280;7937;48.090;16.212;2023-01-31T17:56:48;97878.69;;;2.44;68.38
15674;BME280;7937;48.090;16.212;2023-01-31T17:59:53;97869.56;;;2.25;69.73
15674;BME280;7937;48.090;16.212;2023-01-31T18:02:57;97874.63;;;2.26;69.15
15674;BME280;7937;48.090;16.212;2023-01-31T18:06:05;97859.59;;;2.20;69.33
15674;BME280;7937;48.090;16.212;2023-01-31T18:09:08;97823.84;;;1.90;69.56
15674;BME280;7937;48.090;16.212;2023-01-31T18:12:14;97854.09;;;2.15;70.37
15674;BME280;7937;48.090;16.212;2023-01-31T18:15:18;97844.09;;;2.25;68.36
15674;BME280;7937;48.090;16.212;2023-01-31T18:18:21;97834.47;;;2.32;67.33
15674;BME280;7937;48.090;16.212;2023-01-31T18:21:25;97825.03;;;2.38;65.34
15674;BME280;7937;48.090;16.212;2023-01-31T18:24:29;97811.88;;;2.38;66.41
15674;BME280;7937;48.090;16.212;2023-01-31T18:27:37;97807.34;;;2.47;64.84
15674;BME280;7937;48.090;16.212;2023-01-31T18:30:40;97853.91;;;2.53;63.22
15674;BME280;7937;48.090;16.212;2023-01-31T18:33:45;97815.78;;;2.64;62.28
15674;BME280;7937;48.090;16.212;2023-01-31T18:36:48;97865.38;;;2.88;61.68